createdAt,value
2023-06-03T00:00:30.035Z,8.48
2023-06-03T00:03:19.000Z,9.82
2023-06-03T00:05:46.503Z,6.65
2023-06-03T00:08:14.048Z,7.40
2023-06-03T00:10:41.512Z,10.20
2023-06-03T00:13:09.388Z,6.25
2023-06-03T00:15:36.777Z,7.15
2023-06-03T00:18:05.393Z,10.27
2023-06-03T00:20:37.316Z,7.40
2023-06-03T00:23:05.057Z,8.52
2023-06-03T00:25:33.386Z,7.07
2023-06-03T00:28:01.115Z,9.40
2023-06-03T00:30:30.028Z,7.40
2023-06-03T00:32:57.794Z,8.35
2023-06-03T00:35:25.414Z,5.85
2023-06-03T00:37:55.629Z,10.55
2023-06-03T00:40:23.023Z,7.63
2023-06-03T00:42:50.681Z,6.20
2023-06-03T00:45:18.360Z,6.95
2023-06-03T00:47:46.139Z,8.52
2023-06-03T00:50:14.746Z,6.40
2023-06-03T00:52:43.031Z,6.93
2023-06-03T00:55:10.756Z,6.88
2023-06-03T00:57:38.485Z,7.82
2023-06-03T01:00:06.549Z,6.32
2023-06-03T01:02:37.594Z,6.60
2023-06-03T01:05:06.175Z,9.10
2023-06-03T01:07:43.519Z,8.43
2023-06-03T01:10:24.772Z,9.35
2023-06-03T01:13:01.093Z,7.85
2023-06-03T01:15:31.892Z,9.82
2023-06-03T01:18:04.381Z,8.48
2023-06-03T01:20:32.954Z,8.63
2023-06-03T01:23:29.549Z,8.32
2023-06-03T01:25:58.643Z,8.30
2023-06-03T01:28:28.896Z,8.50
2023-06-03T01:30:57.696Z,6.28
2023-06-03T01:33:28.102Z,8.35
2023-06-03T01:35:57.454Z,7.47
2023-06-03T01:38:25.808Z,7.63
2023-06-03T01:40:54.001Z,7.07
2023-06-03T01:43:21.560Z,6.88
2023-06-03T01:45:49.208Z,9.25
2023-06-03T01:48:18.287Z,8.32
2023-06-03T01:50:45.986Z,9.05
2023-06-03T01:53:14.427Z,6.53
2023-06-03T01:55:42.125Z,8.10
2023-06-03T01:58:09.972Z,8.40
2023-06-03T02:00:37.406Z,7.30
2023-06-03T02:03:05.135Z,7.47
2023-06-03T02:05:32.475Z,7.97
2023-06-03T02:08:00.099Z,6.97
2023-06-03T02:10:27.378Z,7.13
2023-06-03T02:12:54.973Z,5.75
2023-06-03T02:15:22.382Z,6.07
2023-06-03T02:17:50.490Z,8.07
2023-06-03T02:20:18.773Z,6.13
2023-06-03T02:22:46.530Z,9.55
2023-06-03T02:25:14.472Z,8.20
2023-06-03T02:27:44.842Z,5.60
2023-06-03T02:30:12.260Z,6.15
2023-06-03T02:32:40.151Z,8.10
2023-06-03T02:35:07.738Z,4.78
2023-06-03T02:37:35.398Z,7.13
2023-06-03T02:40:02.785Z,9.60
2023-06-03T02:42:30.315Z,7.80
2023-06-03T02:44:57.622Z,8.05
2023-06-03T02:47:25.315Z,7.85
2023-06-03T02:49:52.627Z,7.47
2023-06-03T02:52:21.190Z,10.90
2023-06-03T02:54:48.474Z,7.22
2023-06-03T02:57:16.212Z,5.32
2023-06-03T02:59:43.540Z,8.90
2023-06-03T03:02:13.391Z,5.57
2023-06-03T03:04:41.120Z,9.18
2023-06-03T03:07:09.737Z,6.07
2023-06-03T03:09:37.946Z,6.80
2023-06-03T03:12:05.813Z,5.70
2023-06-03T03:14:33.134Z,9.00
2023-06-03T03:17:00.861Z,6.97
2023-06-03T03:19:28.249Z,7.75
2023-06-03T03:21:55.796Z,7.80
2023-06-03T03:24:25.478Z,8.13
2023-06-03T03:26:53.107Z,9.77
2023-06-03T03:29:24.443Z,9.88
2023-06-03T03:31:57.691Z,10.40
2023-06-03T03:34:25.586Z,7.20
2023-06-03T03:36:53.128Z,7.47
2023-06-03T03:39:20.462Z,6.90
2023-06-03T03:41:48.154Z,7.97
2023-06-03T03:44:15.398Z,6.03
2023-06-03T03:46:58.091Z,5.97
2023-06-03T03:49:35.381Z,7.22
2023-06-03T03:52:06.094Z,6.03
2023-06-03T03:54:36.337Z,6.57
2023-06-03T03:57:10.697Z,8.13
2023-06-03T03:59:38.264Z,8.18
2023-06-03T04:02:06.221Z,6.10
2023-06-03T04:04:46.912Z,7.03
2023-06-03T04:07:19.073Z,8.00
2023-06-03T04:09:48.265Z,7.15
2023-06-03T04:12:31.356Z,7.40
2023-06-03T04:14:59.202Z,6.88
2023-06-03T04:17:29.008Z,7.55
2023-06-03T04:19:56.892Z,7.53
2023-06-03T04:22:26.000Z,6.20
2023-06-03T04:25:01.511Z,6.97
2023-06-03T04:27:29.249Z,5.45
2023-06-03T04:29:56.953Z,8.13
2023-06-03T04:32:24.535Z,4.93
2023-06-03T04:34:55.965Z,8.40
2023-06-03T04:37:23.899Z,9.27
2023-06-03T04:39:52.298Z,8.60
2023-06-03T04:42:21.402Z,7.97
2023-06-03T04:44:49.453Z,9.30
2023-06-03T04:47:18.762Z,6.68
2023-06-03T04:49:48.440Z,6.05
2023-06-03T04:52:16.275Z,5.88
2023-06-03T04:54:43.970Z,6.57
2023-06-03T04:57:11.601Z,7.38
2023-06-03T04:59:38.929Z,6.72
2023-06-03T05:02:09.725Z,7.05
2023-06-03T05:04:38.590Z,5.75
2023-06-03T05:07:06.926Z,9.63
2023-06-03T05:09:34.282Z,5.82
2023-06-03T05:12:01.898Z,7.75
2023-06-03T05:14:29.234Z,7.57
2023-06-03T05:16:56.863Z,6.95
2023-06-03T05:19:25.064Z,5.82
2023-06-03T05:21:52.619Z,7.90
2023-06-03T05:24:20.039Z,8.30
2023-06-03T05:26:47.680Z,8.10
2023-06-03T05:29:15.171Z,6.55
2023-06-03T05:31:42.834Z,7.85
2023-06-03T05:34:11.471Z,6.28
2023-06-03T05:36:39.176Z,9.68
2023-06-03T05:39:06.628Z,10.07
2023-06-03T05:41:34.793Z,7.75
2023-06-03T05:44:02.073Z,6.97
2023-06-03T05:46:29.624Z,7.88
2023-06-03T05:48:57.043Z,9.27
2023-06-03T05:51:24.645Z,6.82
2023-06-03T05:53:51.930Z,11.98
2023-06-03T05:56:19.598Z,9.32
2023-06-03T05:58:47.003Z,8.65
2023-06-03T06:01:14.613Z,11.38
2023-06-03T06:03:43.037Z,12.05
2023-06-03T06:06:11.027Z,9.85
2023-06-03T06:08:38.312Z,7.15
2023-06-03T06:11:06.198Z,13.57
2023-06-03T06:13:33.703Z,16.10
2023-06-03T06:16:03.762Z,10.93
2023-06-03T06:18:31.600Z,7.68
2023-06-03T06:20:59.756Z,8.68
2023-06-03T06:23:27.286Z,11.07
2023-06-03T06:25:56.327Z,6.43
2023-06-03T06:28:27.892Z,8.00
2023-06-03T06:30:57.165Z,15.60
2023-06-03T06:33:24.728Z,15.07
2023-06-03T06:35:52.280Z,10.25
2023-06-03T06:38:19.815Z,6.70
2023-06-03T06:40:51.011Z,7.57
2023-06-03T06:43:22.234Z,10.18
2023-06-03T06:45:51.206Z,7.22
2023-06-03T06:48:18.904Z,6.38
2023-06-03T06:50:46.892Z,6.30
2023-06-03T06:53:22.052Z,7.80
2023-06-03T06:55:54.216Z,7.22
2023-06-03T06:58:22.505Z,18.85
2023-06-03T07:00:50.578Z,15.80
2023-06-03T07:03:21.339Z,26.30
2023-06-03T07:05:53.500Z,19.60
2023-06-03T07:08:25.969Z,15.15
2023-06-03T07:11:01.567Z,12.38
2023-06-03T07:13:28.987Z,9.13
2023-06-03T07:15:57.140Z,13.25
2023-06-03T07:18:26.682Z,7.88
2023-06-03T07:20:54.399Z,10.77
2023-06-03T07:23:25.577Z,9.68
2023-06-03T07:25:54.770Z,12.77
2023-06-03T07:28:34.589Z,6.75
2023-06-03T07:31:08.460Z,9.45
2023-06-03T07:33:54.982Z,13.23
2023-06-03T07:36:25.414Z,9.13
2023-06-03T07:39:09.975Z,9.75
2023-06-03T07:41:42.414Z,8.65
2023-06-03T07:44:15.012Z,10.02
2023-06-03T07:46:45.730Z,12.90
2023-06-03T07:49:15.878Z,9.73
2023-06-03T07:51:48.887Z,7.78
2023-06-03T07:54:16.741Z,9.18
2023-06-03T07:56:46.045Z,12.57
2023-06-03T07:59:15.391Z,6.50
2023-06-03T08:01:48.605Z,14.13
2023-06-03T08:04:36.553Z,6.47
2023-06-03T08:07:07.023Z,8.02
2023-06-03T08:09:36.160Z,13.38
2023-06-03T08:12:08.535Z,10.35
2023-06-03T08:14:38.569Z,5.97
2023-06-03T08:17:11.754Z,8.32
2023-06-03T08:19:39.686Z,12.05
2023-06-03T08:22:28.466Z,9.85
2023-06-03T08:24:55.762Z,6.32
2023-06-03T08:27:23.504Z,7.68
2023-06-03T08:29:50.838Z,10.10
2023-06-03T08:32:18.342Z,8.93
2023-06-03T08:34:46.195Z,8.63
2023-06-03T08:37:13.748Z,6.85
2023-06-03T08:39:41.073Z,4.63
2023-06-03T08:42:14.096Z,6.57
2023-06-03T08:45:04.340Z,10.60
2023-06-03T08:47:50.298Z,9.43
2023-06-03T08:50:21.179Z,9.95
2023-06-03T08:52:49.312Z,7.68
2023-06-03T08:55:17.986Z,9.25
2023-06-03T08:58:05.826Z,9.45
2023-06-03T09:00:33.554Z,6.60
2023-06-03T09:03:02.669Z,5.57
2023-06-03T09:05:31.018Z,6.80
2023-06-03T09:07:58.607Z,10.00
2023-06-03T09:10:27.360Z,8.60
2023-06-03T09:12:58.749Z,5.03
2023-06-03T09:15:26.320Z,10.90
2023-06-03T09:17:53.851Z,15.98
2023-06-03T09:20:21.318Z,7.07
2023-06-03T09:22:49.888Z,10.45
2023-06-03T09:25:18.036Z,14.38
2023-06-03T09:27:45.714Z,5.68
2023-06-03T09:30:13.121Z,12.75
2023-06-03T09:32:42.016Z,6.13
2023-06-03T09:35:10.441Z,5.47
2023-06-03T09:37:38.136Z,9.73
2023-06-03T09:40:24.436Z,7.75
2023-06-03T09:42:51.952Z,9.95
2023-06-03T09:45:26.101Z,6.90
2023-06-03T09:47:54.632Z,5.32
2023-06-03T09:50:23.264Z,24.08
2023-06-03T09:52:51.445Z,14.43
2023-06-03T09:55:19.460Z,8.48
2023-06-03T09:58:07.128Z,4.63
2023-06-03T10:00:49.792Z,8.52
2023-06-03T10:03:19.918Z,5.82
2023-06-03T10:05:47.621Z,7.47
2023-06-03T10:08:15.212Z,5.50
2023-06-03T10:10:56.743Z,8.85
2023-06-03T10:13:25.077Z,7.55
2023-06-03T10:15:54.246Z,6.32
2023-06-03T10:18:41.265Z,6.60
2023-06-03T10:21:14.694Z,7.28
2023-06-03T10:23:43.510Z,7.03
2023-06-03T10:26:11.387Z,7.03
2023-06-03T10:28:39.944Z,6.35
2023-06-03T10:31:12.490Z,6.85
2023-06-03T10:33:41.720Z,9.73
2023-06-03T10:36:10.720Z,8.73
2023-06-03T10:38:41.015Z,8.15
2023-06-03T10:41:13.351Z,10.40
2023-06-03T10:43:44.205Z,9.88
2023-06-03T10:46:12.702Z,7.82
2023-06-03T10:48:44.787Z,9.60
2023-06-03T10:51:48.889Z,8.52
2023-06-03T10:54:34.923Z,7.72
2023-06-03T10:57:07.711Z,8.30
2023-06-03T10:59:46.407Z,7.00
2023-06-03T11:02:14.411Z,4.97
2023-06-03T11:04:42.065Z,8.07
2023-06-03T11:07:31.132Z,10.13
2023-06-03T11:09:58.931Z,5.53
2023-06-03T11:12:48.520Z,5.93
2023-06-03T11:15:16.718Z,7.80
2023-06-03T11:18:16.851Z,8.32
2023-06-03T11:20:44.515Z,5.65
2023-06-03T11:23:44.696Z,3.65
2023-06-03T11:26:35.924Z,8.18
2023-06-03T11:29:07.487Z,3.72
2023-06-03T11:31:36.104Z,7.25
2023-06-03T11:34:24.095Z,8.35
2023-06-03T11:36:53.445Z,14.13
2023-06-03T11:39:22.520Z,5.13
2023-06-03T11:42:07.388Z,8.55
2023-06-03T11:44:36.363Z,9.82
2023-06-03T11:47:05.730Z,6.97
2023-06-03T11:49:38.490Z,5.55
2023-06-03T11:52:08.795Z,8.32
2023-06-03T11:54:37.758Z,11.98
2023-06-03T11:57:06.430Z,10.13
2023-06-03T11:59:42.238Z,5.10
2023-06-03T12:02:11.135Z,6.18
2023-06-03T12:04:39.233Z,5.03
2023-06-03T12:07:11.670Z,9.98
2023-06-03T12:09:39.348Z,17.85
2023-06-03T12:12:08.692Z,5.85
2023-06-03T12:14:39.347Z,8.95
2023-06-03T12:17:13.844Z,8.68
2023-06-03T12:19:46.924Z,6.40
2023-06-03T12:22:22.236Z,8.93
2023-06-03T12:24:50.027Z,6.30
2023-06-03T12:27:25.284Z,4.03
2023-06-03T12:29:58.336Z,8.38
2023-06-03T12:32:30.380Z,6.10
2023-06-03T12:35:10.700Z,12.40
2023-06-03T12:37:39.704Z,8.55
2023-06-03T12:40:08.301Z,9.93
2023-06-03T12:42:43.472Z,7.32
2023-06-03T12:47:48.926Z,4.72
2023-06-03T12:50:17.756Z,30.85
2023-06-03T12:52:45.672Z,17.55
2023-06-03T12:55:18.218Z,13.93
2023-06-03T12:57:47.547Z,5.32
2023-06-03T13:00:22.813Z,7.18
2023-06-03T13:02:54.972Z,4.28
2023-06-03T13:05:24.190Z,9.40
2023-06-03T13:07:51.710Z,6.47
2023-06-03T13:10:19.688Z,3.85
2023-06-03T13:12:48.489Z,8.93
2023-06-03T13:15:17.810Z,7.47
2023-06-03T13:17:45.264Z,8.75
2023-06-03T13:20:13.261Z,7.40
2023-06-03T13:22:42.240Z,4.30
2023-06-03T13:25:10.391Z,5.57
2023-06-03T13:27:42.169Z,3.47
2023-06-03T13:30:10.399Z,15.48
2023-06-03T13:32:40.013Z,14.63
2023-06-03T13:35:08.712Z,5.53
2023-06-03T13:37:36.032Z,9.40
2023-06-03T13:40:03.915Z,9.32
2023-06-03T13:42:31.440Z,7.90
2023-06-03T13:44:59.162Z,4.47
2023-06-03T13:47:27.223Z,7.63
2023-06-03T13:49:56.128Z,9.32
2023-06-03T13:52:24.265Z,7.75
2023-06-03T13:54:51.882Z,9.80
2023-06-03T13:57:19.249Z,14.48
2023-06-03T13:59:47.164Z,9.88
2023-06-03T14:02:15.096Z,5.32
2023-06-03T14:04:44.004Z,4.13
2023-06-03T14:07:11.639Z,3.47
2023-06-03T14:09:39.579Z,7.03
2023-06-03T14:12:07.566Z,5.57
2023-06-03T14:14:35.148Z,6.53
2023-06-03T14:17:02.444Z,7.28
2023-06-03T14:19:31.091Z,10.52
2023-06-03T14:21:58.508Z,7.25
2023-06-03T14:24:26.060Z,15.85
2023-06-03T14:26:53.408Z,21.67
2023-06-03T14:29:21.083Z,11.10
2023-06-03T14:31:48.638Z,7.13
2023-06-03T14:34:16.205Z,7.43
2023-06-03T14:36:43.538Z,9.48
2023-06-03T14:39:11.794Z,10.70
2023-06-03T14:41:39.344Z,5.32
2023-06-03T14:44:06.911Z,4.88
2023-06-03T14:46:34.248Z,3.30
2023-06-03T14:49:01.900Z,8.93
2023-06-03T14:51:29.253Z,7.90
2023-06-03T14:53:57.175Z,6.63
2023-06-03T14:56:24.505Z,6.88
2023-06-03T14:58:52.075Z,6.00
2023-06-03T15:01:19.437Z,8.40
2023-06-03T15:03:47.213Z,5.90
2023-06-03T15:06:16.100Z,10.13
2023-06-03T15:08:44.233Z,6.32
2023-06-03T15:11:11.674Z,10.77
2023-06-03T15:13:40.991Z,5.68
2023-06-03T15:16:08.603Z,8.13
2023-06-03T15:18:36.613Z,5.80
2023-06-03T15:21:04.737Z,6.85
2023-06-03T15:23:32.361Z,7.30
2023-06-03T15:26:00.148Z,10.07
2023-06-03T15:28:27.879Z,4.30
2023-06-03T15:30:55.303Z,11.55
2023-06-03T15:33:22.897Z,4.03
2023-06-03T15:35:50.177Z,5.55
2023-06-03T15:38:17.775Z,6.95
2023-06-03T15:40:45.096Z,11.07
2023-06-03T15:43:12.654Z,10.00
2023-06-03T15:45:39.966Z,8.65
2023-06-03T15:48:07.858Z,6.25
2023-06-03T15:50:36.289Z,9.20
2023-06-03T15:53:04.697Z,5.55
2023-06-03T15:55:32.321Z,10.38
2023-06-03T15:57:59.957Z,7.53
2023-06-03T16:00:27.643Z,6.63
2023-06-03T16:02:55.475Z,5.22
2023-06-03T16:05:23.883Z,15.23
2023-06-03T16:07:52.160Z,8.65
2023-06-03T16:10:19.619Z,6.32
2023-06-03T16:12:47.284Z,5.78
2023-06-03T16:15:14.746Z,7.72
2023-06-03T16:17:42.484Z,10.43
2023-06-03T16:20:10.391Z,8.98
2023-06-03T16:22:38.051Z,7.03
2023-06-03T16:25:05.676Z,4.45
2023-06-03T16:27:33.376Z,5.70
2023-06-03T16:30:01.372Z,3.47
2023-06-03T16:32:29.907Z,5.18
2023-06-03T16:34:57.305Z,8.68
2023-06-03T16:37:25.005Z,13.38
2023-06-03T16:39:58.003Z,9.60
2023-06-03T16:42:25.778Z,8.98
2023-06-03T16:44:53.043Z,12.43
2023-06-03T16:47:20.711Z,5.13
2023-06-03T16:49:48.056Z,6.47
2023-06-03T16:52:16.052Z,4.70
2023-06-03T16:54:43.698Z,4.45
2023-06-03T16:57:11.340Z,5.13
2023-06-03T16:59:38.664Z,6.55
2023-06-03T17:02:06.262Z,4.32
2023-06-03T17:04:33.581Z,10.95
2023-06-03T17:07:01.183Z,2.20
2023-06-03T17:09:28.495Z,7.10
2023-06-03T17:11:56.056Z,2.97
2023-06-03T17:14:23.547Z,4.90
2023-06-03T17:16:51.152Z,8.45
2023-06-03T17:19:18.477Z,3.97
2023-06-03T17:21:46.178Z,3.22
2023-06-03T17:24:13.498Z,3.05
2023-06-03T17:26:41.197Z,4.90
2023-06-03T17:29:08.596Z,2.83
2023-06-03T17:31:36.218Z,23.63
2023-06-03T17:34:03.748Z,10.70
2023-06-03T17:36:31.447Z,14.80
2023-06-03T17:38:58.726Z,5.90
2023-06-03T17:41:27.384Z,4.10
2023-06-03T17:43:54.768Z,10.10
2023-06-03T17:46:22.387Z,3.47
2023-06-03T17:48:49.645Z,8.60
2023-06-03T17:51:17.372Z,12.48
2023-06-03T17:53:44.705Z,8.70
2023-06-03T17:56:12.357Z,13.85
2023-06-03T17:58:39.787Z,10.10
2023-06-03T18:01:08.834Z,9.27
2023-06-03T18:03:36.378Z,13.52
2023-06-03T18:06:04.335Z,10.98
2023-06-03T18:08:31.905Z,6.43
2023-06-03T18:10:59.562Z,11.75
2023-06-03T18:13:26.890Z,7.80
2023-06-03T18:15:54.479Z,9.32
2023-06-03T18:18:21.852Z,17.45
2023-06-03T18:20:49.786Z,11.20
2023-06-03T18:23:17.803Z,13.15
2023-06-03T18:25:46.634Z,9.38
2023-06-03T18:28:13.914Z,8.55
2023-06-03T18:30:41.661Z,9.80
2023-06-03T18:33:09.483Z,14.02
2023-06-03T18:35:37.490Z,7.25
2023-06-03T18:38:04.780Z,18.08
2023-06-03T18:40:32.522Z,9.38
2023-06-03T18:42:59.931Z,8.55
2023-06-03T18:45:27.561Z,8.80
2023-06-03T18:47:55.034Z,6.93
2023-06-03T18:50:23.292Z,8.90
2023-06-03T18:52:51.641Z,5.20
2023-06-03T18:55:19.509Z,7.25
2023-06-03T18:57:48.667Z,6.95
2023-06-03T19:00:16.367Z,4.40
2023-06-03T19:02:43.761Z,8.38
2023-06-03T19:05:11.922Z,11.30
2023-06-03T19:07:39.483Z,10.38
2023-06-03T19:10:07.819Z,13.30
2023-06-03T19:12:35.294Z,15.52
2023-06-03T19:15:03.333Z,8.93
2023-06-03T19:17:30.992Z,11.60
2023-06-03T19:19:58.532Z,76.60
2023-06-03T19:22:25.861Z,111.78
2023-06-03T19:24:53.840Z,87.45
2023-06-03T19:27:21.278Z,64.72
2023-06-03T19:29:48.978Z,45.38
2023-06-03T19:32:16.438Z,34.00
2023-06-03T19:34:44.057Z,26.33
2023-06-03T19:37:11.599Z,28.85
2023-06-03T19:39:39.877Z,14.18
2023-06-03T19:42:07.963Z,18.27
2023-06-03T19:44:36.432Z,10.52
2023-06-03T19:47:04.052Z,6.57
2023-06-03T19:49:32.057Z,14.65
2023-06-03T19:51:59.632Z,18.23
2023-06-03T19:54:28.176Z,12.85
2023-06-03T19:56:56.639Z,16.15
2023-06-03T19:59:25.409Z,12.32
2023-06-03T20:01:54.854Z,19.98
2023-06-03T20:04:22.629Z,15.82
2023-06-03T20:06:50.713Z,12.95
2023-06-03T20:09:19.294Z,22.42
2023-06-03T20:11:47.444Z,20.42
2023-06-03T20:14:15.787Z,19.73
2023-06-03T20:16:43.202Z,25.95
2023-06-03T20:19:11.166Z,17.85
2023-06-03T20:21:39.120Z,24.02
2023-06-03T20:24:08.225Z,19.58
2023-06-03T20:26:36.512Z,13.20
2023-06-03T20:29:05.489Z,15.73
2023-06-03T20:31:33.273Z,19.23
2023-06-03T20:34:01.190Z,13.23
2023-06-03T20:36:29.428Z,10.32
2023-06-03T20:38:57.358Z,10.75
2023-06-03T20:41:24.767Z,15.07
2023-06-03T20:43:52.407Z,17.00
2023-06-03T20:46:19.917Z,8.85
2023-06-03T20:48:47.616Z,10.07
2023-06-03T20:51:14.945Z,16.58
2023-06-03T20:53:42.844Z,11.77
2023-06-03T20:56:10.991Z,15.15
2023-06-03T20:58:38.957Z,8.65
2023-06-03T21:01:06.541Z,8.07
2023-06-03T21:03:36.559Z,9.38
2023-06-03T21:06:04.086Z,10.40
2023-06-03T21:08:31.625Z,9.45
2023-06-03T21:10:59.049Z,10.95
2023-06-03T21:13:27.362Z,6.78
2023-06-03T21:15:54.688Z,16.25
2023-06-03T21:18:22.315Z,8.98
2023-06-03T21:20:49.655Z,9.18
2023-06-03T21:23:17.896Z,6.50
2023-06-03T21:25:45.287Z,8.73
2023-06-03T21:28:12.988Z,10.82
2023-06-03T21:30:40.549Z,5.32
2023-06-03T21:33:08.085Z,6.15
2023-06-03T21:35:35.900Z,8.88
2023-06-03T21:38:03.540Z,8.32
2023-06-03T21:40:30.949Z,9.27
2023-06-03T21:42:58.655Z,7.32
2023-06-03T21:45:26.069Z,8.52
2023-06-03T21:47:53.731Z,8.00
2023-06-03T21:50:21.059Z,7.43
2023-06-03T21:52:48.912Z,13.77
2023-06-03T21:55:16.895Z,7.68
2023-06-03T21:57:44.505Z,9.00
2023-06-03T22:00:14.212Z,6.03
2023-06-03T22:02:42.875Z,5.75
2023-06-03T22:05:11.062Z,9.68
2023-06-03T22:07:38.864Z,7.90
2023-06-03T22:10:06.897Z,8.85
2023-06-03T22:12:34.569Z,12.27
2023-06-03T22:15:02.171Z,8.45
2023-06-03T22:17:29.901Z,6.55
2023-06-03T22:19:57.347Z,6.57
2023-06-03T22:22:25.051Z,11.98
2023-06-03T22:24:52.573Z,7.85
2023-06-03T22:27:20.287Z,7.03
2023-06-03T22:29:47.713Z,7.93
2023-06-03T22:32:15.727Z,9.65
2023-06-03T22:34:43.060Z,9.20
2023-06-03T22:37:11.035Z,7.63
2023-06-03T22:39:38.435Z,7.15
2023-06-03T22:42:06.420Z,5.70
2023-06-03T22:44:33.752Z,7.65
2023-06-03T22:47:01.458Z,6.47
2023-06-03T22:49:29.080Z,4.28
2023-06-03T22:51:56.720Z,6.15
2023-06-03T22:54:24.577Z,5.95
2023-06-03T22:56:52.796Z,5.78
2023-06-03T22:59:20.126Z,5.72
2023-06-03T23:01:48.036Z,5.07
2023-06-03T23:04:15.576Z,5.63
2023-06-03T23:06:43.229Z,6.07
2023-06-03T23:09:11.321Z,6.15
2023-06-03T23:11:39.008Z,6.68
2023-06-03T23:14:06.745Z,5.47
2023-06-03T23:16:34.481Z,5.57
2023-06-03T23:19:01.901Z,8.55
2023-06-03T23:21:31.373Z,6.15
2023-06-03T23:23:59.063Z,6.63
2023-06-03T23:26:26.976Z,7.43
2023-06-03T23:28:54.419Z,7.35
2023-06-03T23:31:22.074Z,5.47
2023-06-03T23:33:49.545Z,9.55
2023-06-03T23:36:19.445Z,5.10
2023-06-03T23:38:48.719Z,4.60
2023-06-03T23:41:17.073Z,7.60
2023-06-03T23:43:44.470Z,5.07
2023-06-03T23:46:12.225Z,6.22
2023-06-03T23:48:42.536Z,6.60
2023-06-03T23:51:10.892Z,6.50
2023-06-03T23:53:38.260Z,7.15
2023-06-03T23:56:06.256Z,5.00
2023-06-03T23:58:33.845Z,8.02
